createdAt,value
2017-06-05T00:00:22.278Z,49.41
2017-06-05T00:00:54.530Z,49.32
2017-06-05T00:01:26.800Z,49.12
2017-06-05T00:01:59.124Z,49.22
2017-06-05T00:02:31.385Z,49.41
2017-06-05T00:03:03.653Z,49.12
2017-06-05T00:03:35.932Z,49.51
2017-06-05T00:04:08.218Z,49.32
2017-06-05T00:04:40.500Z,49.51
2017-06-05T00:05:12.826Z,49.51
2017-06-05T00:05:45.117Z,49.22
2017-06-05T00:06:17.402Z,49.32
2017-06-05T00:06:49.692Z,49.22
2017-06-05T00:07:21.975Z,49.02
2017-06-05T00:07:54.247Z,49.32
2017-06-05T00:08:26.522Z,49.22
2017-06-05T00:08:58.809Z,49.32
2017-06-05T00:09:31.090Z,49.41
2017-06-05T00:10:03.373Z,49.02
2017-06-05T00:10:35.650Z,49.32
2017-06-05T00:11:07.923Z,49.41
2017-06-05T00:11:40.210Z,49.22
2017-06-05T00:12:12.490Z,49.22
2017-06-05T00:12:44.772Z,49.32
2017-06-05T00:13:17.039Z,49.32
2017-06-05T00:13:49.320Z,49.41
2017-06-05T00:14:21.596Z,49.32
2017-06-05T00:14:53.871Z,49.22
2017-06-05T00:15:26.153Z,49.32
2017-06-05T00:15:58.469Z,49.22
2017-06-05T00:16:30.755Z,49.6
2017-06-05T00:17:03.033Z,49.6
2017-06-05T00:17:35.328Z,49.6
2017-06-05T00:18:07.613Z,49.22
2017-06-05T00:18:39.895Z,49.6
2017-06-05T00:19:12.187Z,49.22
2017-06-05T00:19:44.473Z,49.7
2017-06-05T00:20:16.759Z,49.22
2017-06-05T00:20:49.044Z,49.68
2017-06-05T00:21:21.325Z,49.22
2017-06-05T00:21:53.605Z,49.32
2017-06-05T00:22:25.884Z,49.48
2017-06-05T00:22:58.171Z,49.41
2017-06-05T00:23:30.445Z,49.22
2017-06-05T00:24:02.720Z,49.32
2017-06-05T00:24:34.989Z,49.39
2017-06-05T00:25:07.280Z,49.22
2017-06-05T00:25:39.593Z,49.22
2017-06-05T00:26:11.875Z,49.6
2017-06-05T00:26:44.154Z,49.22
2017-06-05T00:27:16.445Z,49.19
2017-06-05T00:27:48.731Z,49.22
2017-06-05T00:28:21.009Z,49.58
2017-06-05T00:28:53.307Z,49.19
2017-06-05T00:29:25.602Z,49.1
2017-06-05T00:29:57.882Z,49.48
2017-06-05T00:30:30.164Z,49.68
2017-06-05T00:31:02.438Z,49.19
2017-06-05T00:31:34.716Z,49.19
2017-06-05T00:32:07.000Z,49.12
2017-06-05T00:32:39.272Z,49.51
2017-06-05T00:33:11.559Z,49.6
2017-06-05T00:33:43.867Z,49.58
2017-06-05T00:34:16.163Z,49.48
2017-06-05T00:34:48.450Z,49.39
2017-06-05T00:35:20.731Z,49.39
2017-06-05T00:35:53.008Z,49.39
2017-06-05T00:36:25.279Z,49.48
2017-06-05T00:36:57.549Z,49.58
2017-06-05T00:37:29.847Z,49.39
2017-06-05T00:38:02.114Z,49.39
2017-06-05T00:38:34.417Z,49.51
2017-06-05T00:39:06.697Z,49.48
2017-06-05T00:39:38.980Z,49.39
2017-06-05T00:40:11.258Z,49.58
2017-06-05T00:40:43.540Z,49.58
2017-06-05T00:41:15.806Z,49.48
2017-06-05T00:41:48.083Z,49.48
2017-06-05T00:42:20.366Z,49.48
2017-06-05T00:42:52.629Z,49.48
2017-06-05T00:43:24.924Z,49.39
2017-06-05T00:43:57.239Z,49.39
2017-06-05T00:44:29.520Z,49.48
2017-06-05T00:45:01.799Z,49.29
2017-06-05T00:45:34.106Z,49.48
2017-06-05T00:46:06.382Z,49.48
2017-06-05T00:46:38.659Z,49.68
2017-06-05T00:47:10.926Z,49.48
2017-06-05T00:47:43.195Z,49.87
2017-06-05T00:48:15.485Z,49.29
2017-06-05T00:48:47.783Z,49.68
2017-06-05T00:49:20.064Z,49.77
2017-06-05T00:49:52.352Z,49.77
2017-06-05T00:50:24.644Z,49.87
2017-06-05T00:50:56.929Z,49.77
2017-06-05T00:51:29.208Z,49.68
2017-06-05T00:52:01.484Z,49.77
2017-06-05T00:52:33.754Z,49.87
2017-06-05T00:53:06.014Z,49.77
2017-06-05T00:53:38.260Z,49.19
2017-06-05T00:54:10.657Z,49.77
2017-06-05T00:54:42.910Z,49.68
2017-06-05T00:55:15.161Z,49.58
2017-06-05T00:55:47.397Z,49.58
2017-06-05T00:56:20.390Z,49.58
2017-06-05T00:56:52.650Z,49.39
2017-06-05T00:57:24.900Z,49.58
2017-06-05T00:57:57.186Z,49.58
2017-06-05T00:58:29.456Z,49.68
2017-06-05T00:59:01.716Z,49.58
2017-06-05T00:59:34.685Z,49.68
2017-06-05T01:00:06.935Z,49.68
2017-06-05T01:00:39.185Z,49.48
2017-06-05T01:01:11.427Z,49.48
2017-06-05T01:01:43.711Z,49.58
2017-06-05T01:02:16.628Z,49.39
2017-06-05T01:02:48.893Z,49.68
2017-06-05T01:03:21.188Z,49.58
2017-06-05T01:03:53.469Z,49.48
2017-06-05T01:04:25.742Z,49.39
2017-06-05T01:04:58.028Z,49.68
2017-06-05T01:05:30.311Z,49.87
2017-06-05T01:06:02.599Z,49.68
2017-06-05T01:06:34.881Z,49.77
2017-06-05T01:07:07.154Z,49.77
2017-06-05T01:07:39.440Z,49.68
2017-06-05T01:08:11.731Z,49.77
2017-06-05T01:08:44.010Z,49.77
2017-06-05T01:09:16.287Z,49.68
2017-06-05T01:09:48.604Z,49.77
2017-06-05T01:10:20.881Z,49.58
2017-06-05T01:10:53.154Z,49.77
2017-06-05T01:11:25.434Z,49.68
2017-06-05T01:11:57.704Z,49.39
2017-06-05T01:12:29.993Z,49.68
2017-06-05T01:13:02.274Z,49.68
2017-06-05T01:13:34.564Z,49.58
2017-06-05T01:14:06.846Z,49.68
2017-06-05T01:14:39.127Z,49.58
2017-06-05T01:15:11.424Z,49.68
2017-06-05T01:15:43.703Z,49.68
2017-06-05T01:16:15.993Z,49.55
2017-06-05T01:16:48.270Z,49.48
2017-06-05T01:17:20.552Z,49.55
2017-06-05T01:17:52.832Z,49.68
2017-06-05T01:18:25.108Z,49.77
2017-06-05T01:18:57.373Z,49.58
2017-06-05T01:19:29.637Z,49.58
2017-06-05T01:20:01.911Z,49.87
2017-06-05T01:20:34.198Z,49.68
2017-06-05T01:21:06.477Z,49.75
2017-06-05T01:21:38.755Z,49.87
2017-06-05T01:22:11.025Z,49.68
2017-06-05T01:22:43.306Z,49.65
2017-06-05T01:23:15.586Z,49.84
2017-06-05T01:23:47.874Z,49.55
2017-06-05T01:24:20.146Z,49.68
2017-06-05T01:24:52.433Z,49.58
2017-06-05T01:25:24.724Z,49.68
2017-06-05T01:25:57.004Z,49.75
2017-06-05T01:26:29.291Z,49.55
2017-06-05T01:27:01.564Z,49.48
2017-06-05T01:27:33.829Z,49.55
2017-06-05T01:28:06.114Z,49.65
2017-06-05T01:28:38.392Z,49.65
2017-06-05T01:29:10.673Z,49.65
2017-06-05T01:29:42.949Z,49.46
2017-06-05T01:30:15.237Z,49.46
2017-06-05T01:30:47.507Z,50.04
2017-06-05T01:31:19.791Z,49.75
2017-06-05T01:31:52.066Z,49.84
2017-06-05T01:32:24.345Z,50.13
2017-06-05T01:32:56.621Z,49.84
2017-06-05T01:33:28.899Z,50.04
2017-06-05T01:34:01.165Z,49.94
2017-06-05T01:34:33.438Z,49.55
2017-06-05T01:35:05.724Z,49.84
2017-06-05T01:35:37.994Z,49.84
2017-06-05T01:36:10.277Z,49.84
2017-06-05T01:36:42.570Z,49.55
2017-06-05T01:37:14.867Z,49.65
2017-06-05T01:37:47.151Z,49.84
2017-06-05T01:38:19.423Z,49.65
2017-06-05T01:38:51.695Z,50.04
2017-06-05T01:39:23.965Z,49.94
2017-06-05T01:39:56.245Z,49.84
2017-06-05T01:40:28.535Z,49.84
2017-06-05T01:41:00.810Z,49.94
2017-06-05T01:41:33.091Z,49.65
2017-06-05T01:42:05.370Z,49.84
2017-06-05T01:42:37.665Z,49.84
2017-06-05T01:43:09.914Z,49.84
2017-06-05T01:43:42.170Z,49.84
2017-06-05T01:44:14.422Z,49.84
2017-06-05T01:44:46.692Z,49.84
2017-06-05T01:45:18.970Z,49.75
2017-06-05T01:45:51.244Z,49.75
2017-06-05T01:46:23.519Z,50.04
2017-06-05T01:46:55.775Z,49.75
2017-06-05T01:47:28.020Z,49.75
2017-06-05T01:48:00.279Z,49.94
2017-06-05T01:48:32.546Z,50.04
2017-06-05T01:49:04.820Z,50.04
2017-06-05T01:49:37.116Z,49.75
2017-06-05T01:50:09.372Z,49.94
2017-06-05T01:50:41.626Z,50.13
2017-06-05T01:51:13.890Z,49.84
2017-06-05T01:51:46.154Z,49.75
2017-06-05T01:52:18.393Z,49.94
2017-06-05T01:52:50.655Z,50.04
2017-06-05T01:53:22.941Z,49.94
2017-06-05T01:53:55.191Z,49.94
2017-06-05T01:54:27.493Z,50.04
2017-06-05T01:54:59.766Z,49.94
2017-06-05T01:55:32.032Z,50.04
2017-06-05T01:56:04.285Z,50.04
2017-06-05T01:56:36.561Z,49.55
2017-06-05T01:57:08.802Z,49.94
2017-06-05T01:57:41.067Z,50.04
2017-06-05T01:58:13.325Z,49.84
2017-06-05T01:58:45.580Z,49.75
2017-06-05T01:59:18.728Z,49.94
2017-06-05T01:59:50.995Z,50.13
2017-06-05T02:00:23.243Z,49.55
2017-06-05T02:00:55.493Z,50.04
2017-06-05T02:01:27.742Z,49.94
2017-06-05T02:01:59.986Z,50.04
2017-06-05T02:02:32.230Z,49.94
2017-06-05T02:03:04.498Z,49.84
2017-06-05T02:03:36.761Z,49.94
2017-06-05T02:04:09.032Z,50.23
2017-06-05T02:04:41.318Z,49.65
2017-06-05T02:05:13.597Z,49.55
2017-06-05T02:05:45.879Z,49.94
2017-06-05T02:06:18.156Z,49.94
2017-06-05T02:06:50.436Z,49.65
2017-06-05T02:07:22.716Z,50.04
2017-06-05T02:07:54.996Z,50.04
2017-06-05T02:08:27.299Z,50.04
2017-06-05T02:08:59.584Z,50.04
2017-06-05T02:09:31.873Z,49.94
2017-06-05T02:10:04.144Z,49.65
2017-06-05T02:10:36.431Z,49.65
2017-06-05T02:11:08.709Z,50.04
2017-06-05T02:11:40.993Z,49.75
2017-06-05T02:12:13.270Z,50.13
2017-06-05T02:12:45.558Z,50.04
2017-06-05T02:13:17.846Z,50.13
2017-06-05T02:13:50.120Z,49.94
2017-06-05T02:14:22.395Z,50.23
2017-06-05T02:14:54.670Z,50.23
2017-06-05T02:15:26.946Z,50.13
2017-06-05T02:15:59.230Z,50.23
2017-06-05T02:16:31.495Z,50.04
2017-06-05T02:17:03.770Z,50.04
2017-06-05T02:17:36.045Z,50.23
2017-06-05T02:18:08.325Z,50.23
2017-06-05T02:18:40.629Z,50.23
2017-06-05T02:19:12.909Z,49.94
2017-06-05T02:19:45.206Z,50.13
2017-06-05T02:20:17.474Z,50.23
2017-06-05T02:20:49.748Z,50.04
2017-06-05T02:21:22.020Z,50.21
2017-06-05T02:21:54.297Z,50.13
2017-06-05T02:22:26.586Z,50.13
2017-06-05T02:22:58.871Z,49.94
2017-06-05T02:23:31.154Z,50.01
2017-06-05T02:24:03.433Z,50.11
2017-06-05T02:24:35.719Z,50.04
2017-06-05T02:25:07.996Z,49.75
2017-06-05T02:25:40.281Z,49.84
2017-06-05T02:26:12.555Z,49.91
2017-06-05T02:26:44.827Z,50.01
2017-06-05T02:27:17.105Z,49.73
2017-06-05T02:27:49.374Z,49.55
2017-06-05T02:28:21.656Z,49.82
2017-06-05T02:28:53.937Z,50.49
2017-06-05T02:29:26.220Z,49.84
2017-06-05T02:29:58.503Z,49.82
2017-06-05T02:30:30.786Z,49.63
2017-06-05T02:31:03.056Z,49.82
2017-06-05T02:31:35.342Z,49.73
2017-06-05T02:32:07.628Z,49.75
2017-06-05T02:32:39.901Z,49.91
2017-06-05T02:33:12.168Z,49.73
2017-06-05T02:33:44.423Z,50.4
2017-06-05T02:34:16.662Z,49.91
2017-06-05T02:34:48.914Z,50.49
2017-06-05T02:35:21.168Z,49.82
2017-06-05T02:35:53.411Z,49.82
2017-06-05T02:36:26.245Z,50.49
2017-06-05T02:36:58.510Z,49.91
2017-06-05T02:37:30.771Z,49.82
2017-06-05T02:38:03.018Z,50.4
2017-06-05T02:38:35.287Z,49.82
2017-06-05T02:39:07.547Z,49.91
2017-06-05T02:39:39.805Z,49.82
2017-06-05T02:40:12.688Z,50.4
2017-06-05T02:40:44.937Z,50.49
2017-06-05T02:41:17.196Z,50.49
2017-06-05T02:41:49.457Z,50.01
2017-06-05T02:42:21.707Z,50.4
2017-06-05T02:42:54.711Z,50.49
2017-06-05T02:43:26.949Z,50.01
2017-06-05T02:43:59.220Z,50.49
2017-06-05T02:44:32.199Z,50.49
2017-06-05T02:45:04.468Z,50.21
2017-06-05T02:45:36.724Z,50.11
2017-06-05T02:46:08.985Z,50.11
2017-06-05T02:46:41.248Z,50.11
2017-06-05T02:47:13.508Z,50.01
2017-06-05T02:47:45.777Z,50.01
2017-06-05T02:48:18.017Z,49.82
2017-06-05T02:48:50.258Z,50.01
2017-06-05T02:49:22.616Z,50.21
2017-06-05T02:49:54.887Z,49.82
2017-06-05T02:50:27.145Z,50.21
2017-06-05T02:50:59.402Z,49.82
2017-06-05T02:51:31.662Z,49.73
2017-06-05T02:52:03.907Z,50.3
2017-06-05T02:52:36.188Z,49.82
2017-06-05T02:53:08.470Z,49.73
2017-06-05T02:53:40.753Z,50.21
2017-06-05T02:54:13.049Z,50.21
2017-06-05T02:54:45.341Z,49.73
2017-06-05T02:55:17.611Z,50.3
2017-06-05T02:55:49.888Z,50.3
2017-06-05T02:56:22.187Z,50.3
2017-06-05T02:56:54.470Z,50.3
2017-06-05T02:57:26.757Z,49.73
2017-06-05T02:57:59.043Z,50.3
2017-06-05T02:58:31.323Z,50.3
2017-06-05T02:59:03.633Z,49.73
2017-06-05T02:59:35.897Z,50.3
2017-06-05T03:00:08.177Z,49.73
2017-06-05T03:00:40.442Z,50.3
2017-06-05T03:01:12.720Z,49.73
2017-06-05T03:01:44.994Z,50.11
2017-06-05T03:02:17.285Z,49.91
2017-06-05T03:02:49.537Z,50.3
2017-06-05T03:03:21.793Z,49.73
2017-06-05T03:03:54.705Z,50.01
2017-06-05T03:04:26.965Z,49.82
2017-06-05T03:04:59.230Z,50.11
2017-06-05T03:05:31.485Z,50.11
2017-06-05T03:06:03.732Z,50.11
2017-06-05T03:06:35.989Z,50.21
2017-06-05T03:07:08.248Z,50.21
2017-06-05T03:07:40.512Z,50.11
2017-06-05T03:08:12.771Z,50.11
2017-06-05T03:08:45.031Z,50.3
2017-06-05T03:09:17.291Z,50.11
2017-06-05T03:09:49.546Z,50.11
2017-06-05T03:10:21.820Z,50.01
2017-06-05T03:10:54.067Z,50.11
2017-06-05T03:11:26.325Z,50.01
2017-06-05T03:11:58.558Z,49.91
2017-06-05T03:12:30.822Z,50.01
2017-06-05T03:13:03.081Z,50.01
2017-06-05T03:13:35.364Z,50.11
2017-06-05T03:14:07.656Z,50.01
2017-06-05T03:14:39.933Z,49.82
2017-06-05T03:15:12.210Z,50.11
2017-06-05T03:15:44.490Z,49.91
2017-06-05T03:16:16.765Z,49.82
2017-06-05T03:16:49.054Z,49.91
2017-06-05T03:17:21.321Z,50.11
2017-06-05T03:17:53.593Z,50.11
2017-06-05T03:18:25.876Z,50.01
2017-06-05T03:18:58.147Z,50.01
2017-06-05T03:19:30.429Z,50.21
2017-06-05T03:20:02.731Z,50.21
2017-06-05T03:20:35.019Z,50.11
2017-06-05T03:21:07.299Z,50.01
2017-06-05T03:21:39.579Z,50.01
2017-06-05T03:22:11.875Z,49.82
2017-06-05T03:22:44.198Z,50.11
2017-06-05T03:23:16.482Z,49.91
2017-06-05T03:23:48.761Z,50.01
2017-06-05T03:24:21.039Z,50.21
2017-06-05T03:24:53.334Z,50.01
2017-06-05T03:25:25.617Z,50.01
2017-06-05T03:25:57.889Z,50.59
2017-06-05T03:26:30.161Z,50.01
2017-06-05T03:27:02.434Z,50.11
2017-06-05T03:27:34.706Z,50.59
2017-06-05T03:28:06.985Z,50.01
2017-06-05T03:28:39.274Z,50.21
2017-06-05T03:29:11.558Z,50.01
2017-06-05T03:29:43.853Z,50.11
2017-06-05T03:30:16.177Z,50.01
2017-06-05T03:30:48.452Z,50.11
2017-06-05T03:31:20.721Z,50.4
2017-06-05T03:31:52.987Z,50.59
2017-06-05T03:32:25.267Z,50.21
2017-06-05T03:32:57.557Z,50.11
2017-06-05T03:33:29.842Z,50.11
2017-06-05T03:34:02.117Z,50.49
2017-06-05T03:34:34.434Z,50.21
2017-06-05T03:35:06.700Z,50.59
2017-06-05T03:35:38.976Z,50.11
2017-06-05T03:36:11.269Z,50.21
2017-06-05T03:36:43.562Z,50.49
2017-06-05T03:37:15.839Z,50.59
2017-06-05T03:37:48.114Z,50.11
2017-06-05T03:38:20.396Z,50.11
2017-06-05T03:38:52.685Z,50.59
2017-06-05T03:39:24.948Z,50.01
2017-06-05T03:39:57.240Z,50.49
2017-06-05T03:40:29.514Z,50.11
2017-06-05T03:41:01.788Z,50.4
2017-06-05T03:41:34.061Z,50.59
2017-06-05T03:42:06.335Z,50.3
2017-06-05T03:42:38.608Z,50.11
2017-06-05T03:43:10.892Z,50.59
2017-06-05T03:43:43.178Z,50.49
2017-06-05T03:44:15.451Z,50.11
2017-06-05T03:44:47.729Z,50.49
2017-06-05T03:45:20.001Z,49.73
2017-06-05T03:45:52.282Z,50.21
2017-06-05T03:46:24.555Z,49.91
2017-06-05T03:46:56.824Z,50.11
2017-06-05T03:47:29.094Z,50.11
2017-06-05T03:48:01.383Z,50.11
2017-06-05T03:48:33.670Z,50.69
2017-06-05T03:49:05.945Z,49.91
2017-06-05T03:49:38.225Z,50.21
2017-06-05T03:50:10.519Z,50.01
2017-06-05T03:50:42.811Z,50.11
2017-06-05T03:51:15.088Z,50.01
2017-06-05T03:51:47.354Z,50.49
2017-06-05T03:52:19.643Z,50.69
2017-06-05T03:52:51.940Z,50.21
2017-06-05T03:53:24.229Z,50.11
2017-06-05T03:53:56.511Z,50.01
2017-06-05T03:54:28.790Z,50.11
2017-06-05T03:55:01.059Z,50.01
2017-06-05T03:55:33.342Z,50.01
2017-06-05T03:56:05.624Z,50.01
2017-06-05T03:56:37.905Z,50.01
2017-06-05T03:57:10.207Z,50.21
2017-06-05T03:57:42.478Z,50.69
2017-06-05T03:58:14.760Z,50.21
2017-06-05T03:58:47.047Z,50.4
2017-06-05T03:59:19.338Z,50.11
2017-06-05T03:59:51.631Z,50.21
2017-06-05T04:00:23.923Z,50.3
2017-06-05T04:00:56.197Z,50.01
2017-06-05T04:01:28.470Z,50.69
2017-06-05T04:02:00.745Z,50.69
2017-06-05T04:02:33.028Z,50.69
2017-06-05T04:03:05.309Z,50.3
2017-06-05T04:03:37.568Z,50.01
2017-06-05T04:04:09.835Z,49.91
2017-06-05T04:04:42.184Z,50.69
2017-06-05T04:05:14.427Z,50.11
2017-06-05T04:05:46.687Z,50.59
2017-06-05T04:06:18.931Z,49.82
2017-06-05T04:06:51.199Z,50.01
2017-06-05T04:07:23.448Z,49.91
2017-06-05T04:07:55.692Z,50.01
2017-06-05T04:08:28.020Z,49.82
2017-06-05T04:09:00.308Z,50.4
2017-06-05T04:09:32.598Z,50.59
2017-06-05T04:10:04.862Z,50.01
2017-06-05T04:10:37.124Z,50.11
2017-06-05T04:11:09.462Z,50.01
2017-06-05T04:11:41.731Z,49.91
2017-06-05T04:12:13.972Z,50.11
2017-06-05T04:12:46.221Z,50.11
2017-06-05T04:13:18.480Z,49.82
2017-06-05T04:13:50.732Z,50.01
2017-06-05T04:14:22.991Z,50.11
2017-06-05T04:14:55.232Z,50.01
2017-06-05T04:15:28.345Z,50.11
2017-06-05T04:16:00.630Z,49.82
2017-06-05T04:16:32.884Z,50.01
2017-06-05T04:17:05.142Z,50.21
2017-06-05T04:17:37.411Z,50.11
2017-06-05T04:18:09.648Z,50.01
2017-06-05T04:18:42.807Z,49.91
2017-06-05T04:19:15.796Z,50.11
2017-06-05T04:19:48.060Z,50.01
2017-06-05T04:20:20.464Z,50.11
2017-06-05T04:20:53.498Z,49.82
2017-06-05T04:21:25.741Z,49.82
2017-06-05T04:21:57.998Z,50.21
2017-06-05T04:22:30.251Z,50.11
2017-06-05T04:23:02.518Z,50.11
2017-06-05T04:23:34.768Z,50.21
2017-06-05T04:24:07.903Z,49.82
2017-06-05T04:24:40.212Z,50.11
2017-06-05T04:25:12.474Z,49.91
2017-06-05T04:25:44.744Z,50.4
2017-06-05T04:26:16.985Z,49.82
2017-06-05T04:26:49.245Z,49.82
2017-06-05T04:27:21.504Z,50.21
2017-06-05T04:27:53.754Z,50.01
2017-06-05T04:28:26.939Z,50.21
2017-06-05T04:28:59.193Z,50.3
2017-06-05T04:29:31.440Z,50.4
2017-06-05T04:30:03.708Z,50.3
2017-06-05T04:30:36.790Z,50.21
2017-06-05T04:31:09.047Z,50.3
2017-06-05T04:31:41.308Z,50.3
2017-06-05T04:32:13.557Z,50.3
2017-06-05T04:32:45.805Z,49.73
2017-06-05T04:33:18.092Z,50.3
2017-06-05T04:33:50.376Z,50.11
2017-06-05T04:34:22.657Z,50.11
2017-06-05T04:34:54.935Z,50.21
2017-06-05T04:35:27.220Z,49.63
2017-06-05T04:35:59.488Z,50.01
2017-06-05T04:36:31.755Z,49.73
2017-06-05T04:37:04.065Z,50.11
2017-06-05T04:37:36.359Z,50.21
2017-06-05T04:38:08.648Z,50.21
2017-06-05T04:38:40.936Z,50.11
2017-06-05T04:39:13.220Z,50.11
2017-06-05T04:39:45.508Z,50.21
2017-06-05T04:40:17.788Z,50.4
2017-06-05T04:40:50.072Z,50.4
2017-06-05T04:41:22.368Z,50.3
2017-06-05T04:41:54.637Z,50.59
2017-06-05T04:42:26.912Z,50.4
2017-06-05T04:42:59.191Z,50.4
2017-06-05T04:43:31.457Z,49.82
2017-06-05T04:44:03.715Z,50.4
2017-06-05T04:44:35.973Z,49.91
2017-06-05T04:45:09.451Z,50.4
2017-06-05T04:45:41.708Z,49.73
2017-06-05T04:46:14.080Z,49.82
2017-06-05T04:46:46.351Z,50.4
2017-06-05T04:47:18.622Z,50.4
2017-06-05T04:47:50.883Z,50.49
2017-06-05T04:48:23.153Z,49.82
2017-06-05T04:48:55.417Z,49.91
2017-06-05T04:49:27.722Z,50.01
2017-06-05T04:49:59.959Z,50.01
2017-06-05T04:50:32.212Z,50.11
2017-06-05T04:51:04.472Z,50.01
2017-06-05T04:51:36.757Z,50.01
2017-06-05T04:52:09.014Z,50.01
2017-06-05T04:52:41.296Z,50.11
2017-06-05T04:53:14.315Z,49.82
2017-06-05T04:53:46.572Z,50.11
2017-06-05T04:54:19.420Z,50.11
2017-06-05T04:54:51.702Z,50.21
2017-06-05T04:55:24.029Z,50.01
2017-06-05T04:55:56.282Z,50.01
2017-06-05T04:56:28.545Z,49.91
2017-06-05T04:57:00.808Z,50.21
2017-06-05T04:57:33.060Z,50.01
2017-06-05T04:58:05.319Z,50.11
2017-06-05T04:58:37.587Z,50.13
2017-06-05T04:59:09.828Z,50.01
2017-06-05T04:59:42.759Z,50.23
2017-06-05T05:00:15.010Z,49.55
2017-06-05T05:00:47.276Z,49.84
2017-06-05T05:01:19.550Z,50.13
2017-06-05T05:01:51.969Z,50.23
2017-06-05T05:02:24.238Z,49.65
2017-06-05T05:02:56.503Z,50.04
2017-06-05T05:03:28.800Z,50.04
2017-06-05T05:04:01.091Z,49.94
2017-06-05T05:04:33.372Z,49.65
2017-06-05T05:05:05.654Z,49.84
2017-06-05T05:05:37.945Z,49.65
2017-06-05T05:06:10.220Z,49.94
2017-06-05T05:06:42.509Z,49.94
2017-06-05T05:07:14.800Z,49.94
2017-06-05T05:07:47.085Z,49.94
2017-06-05T05:08:19.380Z,49.65
2017-06-05T05:08:51.661Z,49.84
2017-06-05T05:09:23.948Z,49.84
2017-06-05T05:09:56.230Z,49.84
2017-06-05T05:10:28.514Z,49.84
2017-06-05T05:11:00.789Z,49.94
2017-06-05T05:11:33.063Z,49.84
2017-06-05T05:12:05.332Z,49.75
2017-06-05T05:12:37.613Z,49.55
2017-06-05T05:13:09.897Z,49.75
2017-06-05T05:13:42.181Z,49.55
2017-06-05T05:14:14.463Z,49.65
2017-06-05T05:14:46.753Z,49.65
2017-06-05T05:15:19.032Z,49.84
2017-06-05T05:15:51.299Z,49.55
2017-06-05T05:16:23.589Z,49.65
2017-06-05T05:16:55.876Z,49.55
2017-06-05T05:17:28.147Z,49.65
2017-06-05T05:18:00.436Z,49.46
2017-06-05T05:18:32.719Z,49.65
2017-06-05T05:19:05.009Z,49.75
2017-06-05T05:19:37.283Z,49.55
2017-06-05T05:20:09.574Z,49.55
2017-06-05T05:20:41.854Z,49.75
2017-06-05T05:21:14.128Z,49.77
2017-06-05T05:21:46.408Z,49.68
2017-06-05T05:22:18.687Z,49.46
2017-06-05T05:22:50.955Z,49.68
2017-06-05T05:23:23.864Z,49.87
2017-06-05T05:23:56.111Z,49.87
2017-06-05T05:24:28.367Z,49.55
2017-06-05T05:25:00.620Z,49.87
2017-06-05T05:25:32.992Z,49.77
2017-06-05T05:26:05.234Z,49.58
2017-06-05T05:26:37.487Z,49.87
2017-06-05T05:27:09.783Z,49.68
2017-06-05T05:27:42.971Z,49.77
2017-06-05T05:28:15.233Z,49.68
2017-06-05T05:28:47.502Z,49.77
2017-06-05T05:29:19.765Z,49.48
2017-06-05T05:29:52.020Z,49.68
2017-06-05T05:30:24.919Z,49.68
2017-06-05T05:30:57.964Z,49.48
2017-06-05T05:31:30.259Z,49.58
2017-06-05T05:32:02.525Z,49.77
2017-06-05T05:32:34.772Z,49.77
2017-06-05T05:33:07.053Z,49.77
2017-06-05T05:33:39.344Z,49.29
2017-06-05T05:34:11.628Z,49.48
2017-06-05T05:34:43.914Z,49.48
2017-06-05T05:35:16.199Z,49.77
2017-06-05T05:35:48.477Z,49.77
2017-06-05T05:36:20.762Z,49.77
2017-06-05T05:36:53.048Z,49.1
2017-06-05T05:37:25.329Z,49.29
2017-06-05T05:37:57.617Z,49.29
2017-06-05T05:38:29.903Z,49.48
2017-06-05T05:39:02.181Z,49.58
2017-06-05T05:39:34.456Z,49.58
2017-06-05T05:40:06.737Z,49.19
2017-06-05T05:40:39.028Z,49.48
2017-06-05T05:41:11.306Z,49.58
2017-06-05T05:41:43.583Z,49.39
2017-06-05T05:42:15.867Z,49.48
2017-06-05T05:42:48.141Z,49.68
2017-06-05T05:43:20.430Z,49.29
2017-06-05T05:43:52.722Z,49.7
2017-06-05T05:44:25.007Z,49.68
2017-06-05T05:44:57.297Z,49.29
2017-06-05T05:45:29.570Z,49.22
2017-06-05T05:46:01.840Z,49.51
2017-06-05T05:46:34.125Z,49.77
2017-06-05T05:47:06.404Z,49.29
2017-06-05T05:47:38.683Z,49.77
2017-06-05T05:48:10.979Z,49.77
2017-06-05T05:48:43.269Z,49.68
2017-06-05T05:49:15.566Z,49.68
2017-06-05T05:49:47.854Z,49.12
2017-06-05T05:50:20.139Z,49.22
2017-06-05T05:50:52.413Z,49.32
2017-06-05T05:51:24.688Z,49.32
2017-06-05T05:51:56.973Z,49.22
2017-06-05T05:52:29.256Z,49.6
2017-06-05T05:53:01.567Z,49.22
2017-06-05T05:53:33.842Z,49.22
2017-06-05T05:54:06.121Z,49.22
2017-06-05T05:54:38.403Z,49.32
2017-06-05T05:55:10.689Z,49.6
2017-06-05T05:55:42.983Z,49.6
2017-06-05T05:56:15.264Z,49.22
2017-06-05T05:56:47.545Z,49.6
2017-06-05T05:57:19.809Z,49.22
2017-06-05T05:57:52.104Z,49.22
2017-06-05T05:58:24.386Z,49.6
2017-06-05T05:58:56.668Z,49.41
2017-06-05T05:59:28.955Z,49.22
2017-06-05T06:00:01.247Z,49.32
2017-06-05T06:00:33.532Z,49.22
2017-06-05T06:01:05.811Z,49.22
2017-06-05T06:01:38.092Z,49.41
2017-06-05T06:02:10.374Z,49.22
2017-06-05T06:02:42.677Z,49.02
2017-06-05T06:03:14.968Z,49.32
2017-06-05T06:03:47.261Z,49.41
2017-06-05T06:04:19.586Z,49.22
2017-06-05T06:04:51.865Z,49.22
2017-06-05T06:05:24.138Z,49.32
2017-06-05T06:05:56.408Z,49.22
2017-06-05T06:06:28.693Z,49.12
2017-06-05T06:07:00.981Z,49.41
2017-06-05T06:07:33.261Z,49.41
2017-06-05T06:08:05.541Z,49.41
2017-06-05T06:08:37.806Z,49.12
2017-06-05T06:09:10.086Z,49.22
2017-06-05T06:09:42.370Z,49.12
2017-06-05T06:10:14.654Z,49.22
2017-06-05T06:10:46.928Z,49.32
2017-06-05T06:11:19.218Z,49.12
2017-06-05T06:11:51.501Z,49.32
2017-06-05T06:12:23.780Z,49.22
2017-06-05T06:12:56.067Z,49.12
2017-06-05T06:13:28.353Z,49.22
2017-06-05T06:14:00.655Z,49.24
2017-06-05T06:14:32.931Z,49.12
2017-06-05T06:15:05.215Z,49.12
2017-06-05T06:15:37.487Z,49.32
2017-06-05T06:16:09.776Z,49.32
2017-06-05T06:16:42.059Z,49.32
2017-06-05T06:17:14.329Z,49.32
2017-06-05T06:17:46.608Z,49.32
2017-06-05T06:18:18.892Z,49.22
2017-06-05T06:18:51.166Z,49.15
2017-06-05T06:19:23.452Z,49.15
2017-06-05T06:19:55.729Z,49.05
2017-06-05T06:20:28.005Z,48.86
2017-06-05T06:21:00.292Z,48.95
2017-06-05T06:21:32.584Z,49.15
2017-06-05T06:22:04.861Z,48.95
2017-06-05T06:22:37.136Z,48.95
2017-06-05T06:23:09.403Z,49.15
2017-06-05T06:23:41.675Z,49.05
2017-06-05T06:24:13.938Z,49.05
2017-06-05T06:24:46.303Z,49.15
2017-06-05T06:25:18.561Z,48.95
2017-06-05T06:25:50.841Z,49.24
2017-06-05T06:26:23.096Z,49.15
2017-06-05T06:26:55.364Z,48.95
2017-06-05T06:27:27.625Z,48.86
2017-06-05T06:27:59.866Z,48.95
2017-06-05T06:28:32.115Z,48.95
2017-06-05T06:29:04.380Z,49.05
2017-06-05T06:29:36.621Z,48.95
2017-06-05T06:30:08.882Z,48.95
2017-06-05T06:30:41.157Z,48.86
2017-06-05T06:31:13.404Z,49.15
2017-06-05T06:31:45.671Z,48.95
2017-06-05T06:32:18.021Z,48.86
2017-06-05T06:32:50.281Z,48.66
2017-06-05T06:33:22.571Z,48.86
2017-06-05T06:33:54.854Z,49.07
2017-06-05T06:34:27.130Z,48.88
2017-06-05T06:34:59.421Z,49.07
2017-06-05T06:35:31.723Z,48.97
2017-06-05T06:36:03.997Z,48.88
2017-06-05T06:36:36.283Z,48.69
2017-06-05T06:37:08.568Z,48.69
2017-06-05T06:37:40.844Z,48.69
2017-06-05T06:38:13.145Z,48.79
2017-06-05T06:38:45.488Z,48.79
2017-06-05T06:39:17.773Z,48.69
2017-06-05T06:39:50.055Z,48.79
2017-06-05T06:40:22.324Z,48.79
2017-06-05T06:40:54.600Z,48.88
2017-06-05T06:41:26.909Z,48.49
2017-06-05T06:41:59.186Z,48.69
2017-06-05T06:42:31.479Z,48.49
2017-06-05T06:43:03.747Z,48.79
2017-06-05T06:43:36.001Z,48.79
2017-06-05T06:44:08.276Z,48.79
2017-06-05T06:44:40.528Z,48.49
2017-06-05T06:45:12.766Z,48.69
2017-06-05T06:45:45.916Z,48.71
2017-06-05T06:46:18.190Z,48.69
2017-06-05T06:46:50.444Z,48.61
2017-06-05T06:47:22.708Z,48.71
2017-06-05T06:47:54.951Z,48.39
2017-06-05T06:48:27.240Z,48.42
2017-06-05T06:48:59.477Z,48.42
2017-06-05T06:49:32.436Z,48.52
2017-06-05T06:50:04.710Z,48.32
2017-06-05T06:50:36.964Z,48.52
2017-06-05T06:51:09.197Z,48.52
2017-06-05T06:51:42.359Z,48.52
2017-06-05T06:52:14.617Z,48.42
2017-06-05T06:52:46.875Z,48.61
2017-06-05T06:53:19.160Z,48.61
2017-06-05T06:53:51.440Z,48.52
2017-06-05T06:54:23.720Z,48.42
2017-06-05T06:54:56.002Z,48.42
2017-06-05T06:55:28.288Z,48.42
2017-06-05T06:56:00.555Z,48.52
2017-06-05T06:56:32.832Z,48.42
2017-06-05T06:57:05.100Z,48.42